Time;durP1;ratioP1;P1;durP2;ratioP2;P2;SDS_P1;SDS_P2;PMS_P1;PMS_P2;Temp;Humidity;BMP_temperature;BMP_pressure;BME280_temperature;BME280_humidity;BME280_pressure;Samples;Min_cycle;Max_cycle;Signal;HPM_P1;HPM_P2
2021/04/14 00:01:21;;;;;;;11.10;2.33;;;0.70;99.90;;;;;;5034138;28;20059;-84
2021/04/14 00:03:47;;;;;;;5.57;1.90;;;0.70;99.90;;;;;;5071545;28;20048;-84
2021/04/14 00:06:13;;;;;;;2.83;1.42;;;0.70;99.90;;;;;;5036379;28;20468;-84
2021/04/14 00:08:39;;;;;;;10.02;2.20;;;0.70;99.90;;;;;;5037177;28;20097;-84
2021/04/14 00:11:09;;;;;;;8.80;2.22;;;0.80;99.90;;;;;;5066242;28;20048;-84
2021/04/14 00:13:43;;;;;;;6.80;1.80;;;0.70;99.90;;;;;;5071652;28;20056;-84
2021/04/14 00:16:16;;;;;;;12.77;2.10;;;0.70;99.90;;;;;;5055799;28;20492;-84
2021/04/14 00:18:44;;;;;;;5.10;1.52;;;0.70;99.90;;;;;;5075198;28;20045;-84
2021/04/14 00:21:11;;;;;;;10.05;1.55;;;0.60;99.90;;;;;;5068813;28;20687;-85
2021/04/14 00:23:37;;;;;;;1.65;1.30;;;0.60;99.90;;;;;;5037030;28;20040;-84
2021/04/14 00:26:06;;;;;;;10.68;2.05;;;0.60;99.90;;;;;;5036811;28;20054;-83
2021/04/14 00:28:33;;;;;;;4.40;1.45;;;0.60;99.90;;;;;;5047774;28;20056;-84
2021/04/14 00:30:59;;;;;;;5.47;1.70;;;0.60;99.90;;;;;;5036549;28;20048;-84
2021/04/14 00:33:25;;;;;;;10.90;2.10;;;0.60;99.90;;;;;;5051728;28;20489;-83
2021/04/14 00:35:51;;;;;;;6.53;1.92;;;0.60;99.90;;;;;;5053056;28;20552;-84
2021/04/14 00:38:19;;;;;;;3.85;1.60;;;0.60;99.90;;;;;;5070181;28;20123;-85
2021/04/14 00:40:53;;;;;;;10.68;2.08;;;0.60;99.90;;;;;;5052213;28;20037;-84
2021/04/14 00:43:22;;;;;;;8.60;1.83;;;0.50;99.90;;;;;;5052467;28;20041;-84
2021/04/14 00:45:49;;;;;;;4.70;1.80;;;0.60;99.90;;;;;;5070767;28;20397;-84
2021/04/14 00:48:14;;;;;;;9.57;2.10;;;0.60;99.90;;;;;;5070061;28;20098;-85
2021/04/14 00:50:40;;;;;;;9.15;1.92;;;0.60;99.90;;;;;;5032816;28;20055;-84
2021/04/14 00:53:07;;;;;;;6.85;1.75;;;0.60;99.90;;;;;;5051800;28;20041;-84
2021/04/14 00:55:34;;;;;;;6.10;1.75;;;0.70;99.90;;;;;;5062534;28;20652;-83
2021/04/14 00:58:00;;;;;;;6.65;1.33;;;0.70;99.90;;;;;;5048316;28;20552;-84
2021/04/14 01:00:26;;;;;;;8.40;3.25;;;0.70;99.90;;;;;;5069368;28;20072;-84
2021/04/14 01:02:52;;;;;;;9.65;1.52;;;0.60;99.90;;;;;;5070355;28;20068;-85
2021/04/14 01:05:19;;;;;;;7.15;1.40;;;0.60;99.90;;;;;;5046706;28;20037;-85
2021/04/14 01:07:47;;;;;;;18.80;2.38;;;0.60;99.90;;;;;;5036454;28;20067;-84
2021/04/14 01:10:13;;;;;;;6.15;1.70;;;0.60;99.90;;;;;;5070031;28;20044;-84
2021/04/14 01:12:39;;;;;;;11.45;2.10;;;0.70;99.90;;;;;;5065784;28;20061;-84
2021/04/14 01:15:11;;;;;;;7.88;1.90;;;0.70;99.90;;;;;;5059938;28;20083;-84
2021/04/14 01:17:37;;;;;;;14.13;2.95;;;0.80;99.90;;;;;;5048768;28;20041;-85
2021/04/14 01:20:05;;;;;;;10.40;2.20;;;0.90;99.90;;;;;;5052526;28;20396;-84
2021/04/14 01:22:31;;;;;;;8.48;2.05;;;0.90;99.90;;;;;;5065716;28;20032;-84
2021/04/14 01:24:57;;;;;;;8.23;2.20;;;1.00;99.90;;;;;;5052402;28;20046;-85
2021/04/14 01:27:23;;;;;;;13.55;2.28;;;1.10;99.90;;;;;;5034627;28;20499;-85
2021/04/14 01:29:49;;;;;;;17.10;1.83;;;1.20;99.90;;;;;;5052223;28;20040;-85
2021/04/14 01:32:15;;;;;;;14.02;2.03;;;1.30;99.90;;;;;;5069690;28;20119;-84
2021/04/14 01:34:40;;;;;;;4.65;2.15;;;1.30;99.90;;;;;;5051299;28;20477;-83
2021/04/14 01:37:06;;;;;;;3.70;1.83;;;1.20;99.90;;;;;;5034993;28;20500;-84
2021/04/14 01:39:32;;;;;;;7.65;2.55;;;1.20;99.90;;;;;;5034121;28;20090;-83
2021/04/14 01:41:58;;;;;;;9.32;2.88;;;1.20;99.90;;;;;;5069553;28;20086;-84
2021/04/14 01:44:24;;;;;;;7.65;2.22;;;1.10;99.90;;;;;;5034734;28;20068;-83
2021/04/14 01:46:50;;;;;;;9.88;2.20;;;1.10;99.90;;;;;;5051656;28;20036;-83
2021/04/14 01:49:16;;;;;;;8.23;2.22;;;1.00;99.90;;;;;;5069560;28;20044;-83
2021/04/14 01:51:42;;;;;;;6.38;2.30;;;0.90;99.90;;;;;;5048964;28;20400;-83
2021/04/14 01:54:10;;;;;;;8.20;2.00;;;1.00;99.90;;;;;;5030611;28;20037;-84
2021/04/14 01:56:38;;;;;;;7.35;2.08;;;0.90;99.90;;;;;;5046629;28;20055;-85
2021/04/14 01:59:05;;;;;;;3.05;1.92;;;0.80;99.90;;;;;;5069852;28;20052;-84
2021/04/14 02:01:31;;;;;;;5.55;2.03;;;0.90;99.90;;;;;;5050757;28;20040;-83
2021/04/14 02:03:57;;;;;;;4.35;1.70;;;0.80;99.90;;;;;;5049823;28;20047;-84
2021/04/14 02:06:23;;;;;;;3.60;1.60;;;0.80;99.90;;;;;;5030341;28;20036;-83
2021/04/14 02:08:48;;;;;;;2.55;1.27;;;0.70;99.90;;;;;;5033509;28;20081;-83
2021/04/14 02:11:17;;;;;;;4.68;1.90;;;0.70;99.90;;;;;;5051803;28;20060;-82
2021/04/14 02:13:44;;;;;;;7.18;1.60;;;0.70;99.90;;;;;;5034298;28;20048;-82
2021/04/14 02:16:20;;;;;;;2.28;1.55;;;0.80;99.90;;;;;;5041235;28;20049;-83
2021/04/14 02:18:51;;;;;;;6.50;1.67;;;0.80;99.90;;;;;;5051245;28;20048;-83
2021/04/14 02:21:18;;;;;;;8.88;1.67;;;0.80;99.90;;;;;;5042332;28;20063;-83
2021/04/14 02:23:45;;;;;;;6.97;2.17;;;0.80;99.90;;;;;;5068873;28;20041;-83
2021/04/14 02:26:15;;;;;;;5.80;1.13;;;0.80;99.90;;;;;;5059373;28;20048;-83
2021/04/14 02:28:44;;;;;;;4.20;1.33;;;0.90;99.90;;;;;;5050445;28;20040;-83
2021/04/14 02:31:14;;;;;;;5.35;1.27;;;0.90;99.90;;;;;;5052113;28;20067;-84
2021/04/14 02:33:40;;;;;;;2.50;0.80;;;1.00;99.90;;;;;;5068567;28;20187;-83
2021/04/14 02:36:07;;;;;;;15.30;1.70;;;1.10;99.90;;;;;;5034010;28;20048;-83
2021/04/14 02:38:34;;;;;;;7.45;1.35;;;1.20;99.90;;;;;;5068306;28;20094;-83
2021/04/14 02:41:03;;;;;;;7.50;2.35;;;1.50;99.90;;;;;;5051220;28;20051;-83
2021/04/14 02:43:52;;;;;;;8.65;2.05;;;1.40;99.90;;;;;;5037364;28;20135;-83
2021/04/14 02:46:20;;;;;;;11.68;2.20;;;1.50;99.90;;;;;;5051123;28;20182;-84
2021/04/14 02:48:50;;;;;;;8.73;2.20;;;1.50;99.90;;;;;;5068317;28;20051;-84
2021/04/14 02:51:35;;;;;;;9.68;2.63;;;1.50;99.90;;;;;;5053419;28;20052;-83
2021/04/14 02:54:01;;;;;;;5.63;2.22;;;1.40;99.90;;;;;;5069035;28;20036;-83
2021/04/14 02:56:27;;;;;;;6.20;1.75;;;1.50;99.90;;;;;;5049586;28;20051;-82
2021/04/14 02:58:53;;;;;;;9.70;1.75;;;1.50;99.90;;;;;;5030609;28;20058;-83
2021/04/14 03:01:19;;;;;;;12.35;2.20;;;1.40;99.90;;;;;;5033649;28;20088;-83
2021/04/14 03:03:45;;;;;;;13.55;3.47;;;1.40;99.90;;;;;;5067767;28;20478;-83
2021/04/14 03:06:11;;;;;;;5.15;2.58;;;1.30;99.90;;;;;;5050976;28;20115;-83
2021/04/14 03:08:36;;;;;;;4.18;1.17;;;1.30;99.90;;;;;;5016821;28;20053;-84
2021/04/14 03:11:22;;;;;;;6.63;1.05;;;1.20;99.90;;;;;;5022260;28;20523;-84
2021/04/14 03:13:55;;;;;;;4.88;1.00;;;1.20;99.90;;;;;;5035805;28;20056;-83
2021/04/14 03:16:20;;;;;;;5.32;1.50;;;1.20;99.90;;;;;;5034938;28;20044;-83
2021/04/14 03:18:47;;;;;;;7.78;1.35;;;1.10;99.90;;;;;;5037132;28;20644;-84
2021/04/14 03:21:12;;;;;;;8.65;1.27;;;1.10;99.90;;;;;;5046743;28;20049;-84
2021/04/14 03:23:38;;;;;;;3.28;1.05;;;1.10;99.90;;;;;;5071817;28;20048;-83
2021/04/14 03:26:04;;;;;;;8.50;1.52;;;1.00;99.90;;;;;;5072259;28;20040;-84
2021/04/14 03:28:30;;;;;;;7.65;1.95;;;1.00;99.90;;;;;;5037159;28;20048;-83
2021/04/14 03:30:56;;;;;;;4.85;1.33;;;1.00;99.90;;;;;;5049752;28;20037;-83
2021/04/14 03:33:22;;;;;;;5.53;1.50;;;0.90;99.90;;;;;;5072388;28;20121;-83
2021/04/14 03:35:48;;;;;;;2.33;1.25;;;0.90;99.90;;;;;;5071407;28;20523;-83
2021/04/14 03:38:14;;;;;;;6.30;1.30;;;0.80;99.90;;;;;;5037516;28;20044;-83
2021/04/14 03:41:00;;;;;;;11.32;1.20;;;0.80;99.90;;;;;;5037554;28;20052;-83
2021/04/14 03:43:29;;;;;;;5.68;0.85;;;0.80;99.90;;;;;;5053077;28;20052;-83
2021/04/14 03:45:58;;;;;;;5.15;1.20;;;0.90;99.90;;;;;;5066144;28;20036;-83
2021/04/14 03:48:25;;;;;;;4.82;1.30;;;0.80;99.90;;;;;;5038185;28;20036;-83
2021/04/14 03:50:51;;;;;;;8.32;1.13;;;0.90;99.90;;;;;;5053674;28;20147;-83
2021/04/14 03:53:25;;;;;;;1.98;0.80;;;0.80;99.90;;;;;;5053858;28;20098;-83
2021/04/14 03:56:08;;;;;;;5.80;1.38;;;0.90;99.90;;;;;;5053221;28;20403;-83
2021/04/14 03:58:36;;;;;;;7.15;1.65;;;0.90;99.90;;;;;;5052525;28;20048;-83
2021/04/14 04:01:11;;;;;;;10.60;1.13;;;0.90;99.90;;;;;;5037245;28;20048;-83
2021/04/14 04:03:38;;;;;;;9.68;0.98;;;0.80;99.90;;;;;;5044763;28;20043;-83
2021/04/14 04:06:04;;;;;;;7.15;0.95;;;0.80;99.90;;;;;;5053664;28;20439;-83
2021/04/14 04:08:45;;;;;;;17.45;1.30;;;0.80;99.90;;;;;;5040644;28;20037;-82
2021/04/14 04:11:11;;;;;;;6.35;1.08;;;0.80;99.90;;;;;;5056952;28;20068;-82
2021/04/14 04:13:38;;;;;;;3.33;1.00;;;0.70;99.90;;;;;;5067407;28;20048;-83
2021/04/14 04:16:05;;;;;;;5.15;1.30;;;0.80;99.90;;;;;;5070344;28;20072;-84
2021/04/14 04:18:32;;;;;;;4.38;1.58;;;0.80;99.90;;;;;;5036456;28;20049;-83
2021/04/14 04:20:58;;;;;;;7.85;1.63;;;0.80;99.90;;;;;;5053244;28;20040;-83
2021/04/14 04:23:24;;;;;;;10.35;1.02;;;0.80;99.90;;;;;;5069780;28;20400;-82
2021/04/14 04:25:51;;;;;;;2.92;0.93;;;0.70;99.90;;;;;;5052545;28;20040;-82
2021/04/14 04:28:18;;;;;;;8.68;1.00;;;0.70;99.90;;;;;;5052928;28;20400;-83
2021/04/14 04:30:44;;;;;;;4.53;1.08;;;0.70;99.90;;;;;;5052797;28;20049;-82
2021/04/14 04:33:10;;;;;;;5.72;1.10;;;0.70;99.90;;;;;;5069297;28;20040;-83
2021/04/14 04:35:36;;;;;;;6.75;1.40;;;0.70;99.90;;;;;;5036035;28;20051;-83
2021/04/14 04:38:03;;;;;;;3.80;1.00;;;0.80;99.90;;;;;;5036393;28;20048;-83
2021/04/14 04:40:49;;;;;;;7.93;1.40;;;0.90;99.90;;;;;;5055238;28;20485;-82
2021/04/14 04:43:23;;;;;;;1.80;0.93;;;0.90;99.90;;;;;;5050055;28;20036;-82
2021/04/14 04:45:51;;;;;;;3.40;0.88;;;0.90;99.90;;;;;;5043360;28;20040;-82
2021/04/14 04:48:17;;;;;;;6.97;0.80;;;0.90;99.90;;;;;;5070753;28;20040;-82
2021/04/14 04:50:43;;;;;;;1.95;1.13;;;1.00;99.90;;;;;;5052135;28;20045;-82
2021/04/14 04:53:13;;;;;;;8.68;2.58;;;1.10;99.90;;;;;;5036074;28;20476;-82
2021/04/14 04:55:45;;;;;;;4.57;1.23;;;1.20;99.90;;;;;;5068056;28;20040;-82
2021/04/14 04:58:12;;;;;;;5.15;2.25;;;1.20;99.90;;;;;;5070274;28;20083;-82
2021/04/14 05:00:38;;;;;;;7.53;1.58;;;1.10;99.90;;;;;;5051991;28;20052;-82
2021/04/14 05:03:07;;;;;;;8.05;3.70;;;1.00;99.90;;;;;;5036156;28;20056;-82
2021/04/14 05:05:37;;;;;;;7.77;3.57;;;1.00;99.90;;;;;;5070355;28;20093;-82
2021/04/14 05:08:04;;;;;;;9.80;4.82;;;1.00;99.90;;;;;;5070440;28;20174;-82
2021/04/14 05:10:50;;;;;;;14.88;4.57;;;1.10;99.90;;;;;;5051684;28;20905;-82
2021/04/14 05:13:16;;;;;;;12.65;5.60;;;1.10;99.90;;;;;;5052894;28;20040;-83
2021/04/14 05:15:42;;;;;;;12.23;4.75;;;1.20;99.90;;;;;;5034945;28;20097;-82
2021/04/14 05:18:09;;;;;;;9.32;2.15;;;1.30;99.90;;;;;;5019545;28;20120;-82
2021/04/14 05:20:36;;;;;;;7.85;2.10;;;1.20;99.90;;;;;;5052223;28;20056;-82
2021/04/14 05:23:04;;;;;;;6.63;1.50;;;1.10;99.90;;;;;;5049809;28;20523;-83
2021/04/14 05:25:31;;;;;;;2.63;1.23;;;1.10;99.90;;;;;;5037481;28;20048;-83
2021/04/14 05:28:03;;;;;;;6.45;1.15;;;1.20;99.90;;;;;;5067124;28;20093;-82
2021/04/14 05:30:29;;;;;;;6.72;1.42;;;1.30;99.90;;;;;;5052135;28;20040;-82
2021/04/14 05:33:15;;;;;;;2.78;1.13;;;1.30;99.90;;;;;;5039959;28;20040;-82
2021/04/14 05:35:42;;;;;;;5.38;1.35;;;1.40;99.90;;;;;;5060932;28;20052;-82
2021/04/14 05:38:09;;;;;;;5.88;1.58;;;1.20;99.90;;;;;;5031582;28;20068;-83
2021/04/14 05:40:36;;;;;;;5.47;0.82;;;1.20;99.90;;;;;;5059457;28;20044;-83
2021/04/14 05:43:25;;;;;;;4.93;1.10;;;1.30;99.90;;;;;;5054796;28;20044;-83
2021/04/14 05:46:01;;;;;;;2.75;1.20;;;1.20;99.90;;;;;;5068937;28;20044;-83
2021/04/14 05:48:27;;;;;;;7.68;1.20;;;1.20;99.90;;;;;;5069576;28;20492;-84
2021/04/14 05:50:55;;;;;;;3.75;1.58;;;1.20;99.90;;;;;;5069105;28;20040;-83
2021/04/14 05:53:21;;;;;;;5.53;1.80;;;1.20;99.90;;;;;;5051829;28;20041;-83
2021/04/14 05:55:47;;;;;;;8.13;1.73;;;1.30;99.90;;;;;;5033693;28;20055;-83
2021/04/14 05:58:13;;;;;;;8.20;2.00;;;1.20;99.90;;;;;;5035036;28;20048;-83
2021/04/14 06:00:39;;;;;;;5.45;1.52;;;1.30;99.90;;;;;;5051578;28;20045;-83
2021/04/14 06:03:05;;;;;;;4.10;1.70;;;1.30;99.90;;;;;;5051307;28;20044;-83
2021/04/14 06:05:31;;;;;;;7.07;1.70;;;1.30;99.90;;;;;;5034985;28;20093;-83
2021/04/14 06:07:57;;;;;;;9.50;1.92;;;1.40;99.90;;;;;;5050720;28;20040;-82
2021/04/14 06:10:25;;;;;;;9.00;2.35;;;1.40;99.90;;;;;;5067265;28;20048;-83
2021/04/14 06:12:53;;;;;;;7.22;1.85;;;1.40;99.90;;;;;;5034030;28;20412;-82
2021/04/14 06:15:29;;;;;;;10.23;1.70;;;1.40;99.90;;;;;;5051537;28;20129;-83
2021/04/14 06:17:55;;;;;;;6.65;1.80;;;1.50;99.90;;;;;;5034098;28;20456;-83
2021/04/14 06:20:23;;;;;;;8.15;1.80;;;1.60;99.90;;;;;;5051240;28;20119;-83
2021/04/14 06:23:15;;;;;;;3.83;1.08;;;1.70;99.90;;;;;;5021108;28;20131;-83
2021/04/14 06:25:53;;;;;;;4.90;1.13;;;1.80;99.90;;;;;;5059327;28;20090;-84
2021/04/14 06:28:21;;;;;;;2.08;1.45;;;1.70;99.90;;;;;;5023985;28;20039;-83
2021/04/14 06:30:47;;;;;;;5.38;1.10;;;1.90;99.90;;;;;;5046617;28;20119;-84
2021/04/14 06:33:15;;;;;;;7.07;1.40;;;2.00;99.90;;;;;;5048377;28;20461;-84
2021/04/14 06:35:41;;;;;;;4.53;1.08;;;2.00;99.90;;;;;;5034329;28;20555;-83
2021/04/14 06:38:07;;;;;;;2.05;1.13;;;2.10;99.90;;;;;;5050283;28;20052;-83
2021/04/14 06:44:08;;;;;;;10.38;1.23;;;2.20;99.90;;;;;;5052795;28;20048;-84
2021/04/14 06:46:56;;;;;;;5.15;1.30;;;2.30;99.90;;;;;;5015440;28;20210;-84
2021/04/14 06:49:41;;;;;;;10.32;1.73;;;2.40;99.90;;;;;;5040127;28;20049;-84
2021/04/14 06:52:27;;;;;;;10.98;2.03;;;2.50;99.90;;;;;;5070529;28;20172;-85
2021/04/14 06:55:06;;;;;;;9.98;1.75;;;2.50;99.90;;;;;;5072137;28;20551;-84
2021/04/14 06:57:36;;;;;;;3.45;1.45;;;2.70;99.90;;;;;;5072329;28;20116;-84
2021/04/14 07:00:14;;;;;;;9.50;1.60;;;2.70;99.90;;;;;;5071023;28;20038;-84
2021/04/14 07:02:46;;;;;;;6.07;2.03;;;2.80;99.90;;;;;;5067922;28;20117;-84
2021/04/14 07:05:36;;;;;;;10.57;1.92;;;2.90;99.90;;;;;;5068579;28;20040;-84
2021/04/14 07:08:08;;;;;;;16.88;3.10;;;3.00;99.90;;;;;;5064042;28;20040;-85
2021/04/14 07:10:50;;;;;;;7.80;2.03;;;3.20;99.90;;;;;;5071351;28;20082;-84
2021/04/14 07:13:16;;;;;;;12.48;3.17;;;3.40;99.90;;;;;;5072476;28;20447;-85
2021/04/14 07:15:45;;;;;;;5.32;2.50;;;3.60;99.90;;;;;;5050525;28;20170;-84
2021/04/14 07:18:25;;;;;;;8.27;1.13;;;3.80;99.90;;;;;;5021567;28;20399;-85
2021/04/14 07:21:04;;;;;;;7.60;0.93;;;3.90;99.90;;;;;;5053511;28;20040;-84
2021/04/14 07:23:49;;;;;;;12.60;1.17;;;4.10;99.90;;;;;;5054738;28;20048;-84
2021/04/14 07:26:48;;;;;;;6.10;0.88;;;4.30;99.90;;;;;;5037678;28;20057;-84
2021/04/14 07:29:25;;;;;;;3.30;0.43;;;4.50;99.90;;;;;;5069322;28;20039;-86
2021/04/14 07:32:37;;;;;;;11.40;0.85;;;4.60;99.90;;;;;;5042897;28;20056;-85
2021/04/14 07:35:25;;;;;;;10.85;1.73;;;4.70;99.90;;;;;;5053699;28;20052;-85
2021/04/14 07:38:39;;;;;;;5.43;1.00;;;4.70;99.90;;;;;;5071001;28;20068;-85
2021/04/14 07:41:55;;;;;;;2.45;0.70;;;4.80;99.90;;;;;;5059285;28;20064;-85
2021/04/14 07:44:31;;;;;;;5.45;0.63;;;4.90;99.90;;;;;;4955288;28;20929;-82
2021/04/14 07:46:57;;;;;;;3.30;0.73;;;4.90;99.90;;;;;;5051982;28;20083;-83
2021/04/14 07:49:29;;;;;;;5.18;1.00;;;5.00;99.90;;;;;;5040585;28;20063;-82
2021/04/14 07:51:55;;;;;;;16.58;0.70;;;5.20;99.90;;;;;;5046760;28;20404;-83
2021/04/14 07:54:25;;;;;;;7.38;0.73;;;5.30;99.90;;;;;;5037327;28;20044;-83
2021/04/14 07:56:55;;;;;;;11.25;0.68;;;5.40;99.90;;;;;;5052582;28;20397;-86
2021/04/14 07:59:30;;;;;;;10.85;1.02;;;5.60;99.90;;;;;;5069189;28;20549;-84
2021/04/14 08:02:13;;;;;;;6.20;1.10;;;5.60;99.90;;;;;;5065241;28;20040;-85
2021/04/14 08:04:46;;;;;;;3.42;0.98;;;5.70;99.90;;;;;;5052382;28;20051;-85
2021/04/14 08:07:23;;;;;;;4.18;1.77;;;5.70;99.90;;;;;;5051885;28;20116;-84
2021/04/14 08:09:51;;;;;;;6.75;0.55;;;5.60;99.90;;;;;;5069879;28;20511;-85
2021/04/14 08:12:30;;;;;;;5.90;0.95;;;5.60;99.90;;;;;;5065882;28;20409;-84
2021/04/14 08:15:18;;;;;;;9.55;0.60;;;5.40;99.90;;;;;;5070773;28;20040;-83
2021/04/14 08:17:46;;;;;;;2.75;0.63;;;5.20;99.90;;;;;;5070812;28;20115;-84
2021/04/14 08:20:29;;;;;;;6.97;1.25;;;5.20;99.90;;;;;;5052589;28;20064;-84
2021/04/14 08:23:11;;;;;;;10.40;1.85;;;5.20;99.90;;;;;;5035558;28;20053;-84
2021/04/14 08:25:41;;;;;;;5.03;0.80;;;5.40;99.90;;;;;;5043276;28;20504;-84
2021/04/14 08:28:07;;;;;;;7.70;0.75;;;5.50;99.90;;;;;;5034780;28;20055;-84
2021/04/14 08:30:33;;;;;;;2.17;0.38;;;5.50;99.90;;;;;;5020064;28;20045;-84
2021/04/14 08:33:08;;;;;;;2.20;0.50;;;5.50;99.90;;;;;;5052025;28;20040;-84
2021/04/14 08:35:43;;;;;;;1.45;0.40;;;5.60;99.90;;;;;;5070602;28;20040;-83
2021/04/14 08:38:29;;;;;;;6.88;0.77;;;5.70;99.90;;;;;;5050374;28;20036;-83
2021/04/14 08:41:01;;;;;;;11.75;0.82;;;5.70;99.90;;;;;;5050096;28;20037;-86
2021/04/14 08:43:33;;;;;;;8.82;0.63;;;5.90;99.90;;;;;;5069830;28;20041;-84
2021/04/14 08:46:33;;;;;;;3.40;0.65;;;5.90;99.90;;;;;;5051389;28;20048;-85
2021/04/14 08:49:09;;;;;;;3.70;1.10;;;6.00;99.90;;;;;;5054310;28;20052;-84
2021/04/14 08:51:43;;;;;;;7.75;0.88;;;6.00;99.90;;;;;;5070168;28;20408;-84
2021/04/14 08:54:16;;;;;;;4.10;0.57;;;6.00;99.90;;;;;;5069242;28;20123;-84
2021/04/14 08:56:42;;;;;;;5.45;0.70;;;6.00;99.90;;;;;;5049165;28;20036;-84
2021/04/14 08:59:10;;;;;;;7.68;0.52;;;6.10;99.90;;;;;;5014336;28;20520;-85
2021/04/14 09:01:37;;;;;;;7.40;0.52;;;6.10;99.90;;;;;;5069219;28;20049;-83
2021/04/14 09:04:07;;;;;;;5.45;0.50;;;6.10;99.90;;;;;;5018604;28;20044;-84
2021/04/14 09:06:35;;;;;;;1.65;0.43;;;6.30;99.90;;;;;;5069514;28;20557;-84
2021/04/14 09:09:04;;;;;;;5.43;1.00;;;6.20;99.90;;;;;;5059645;28;20400;-84
2021/04/14 09:11:30;;;;;;;3.65;0.70;;;6.20;99.90;;;;;;5069995;28;20044;-85
2021/04/14 09:14:03;;;;;;;2.45;0.60;;;6.20;99.90;;;;;;5068210;28;20518;-85
2021/04/14 09:16:47;;;;;;;5.65;0.80;;;6.20;99.90;;;;;;5070110;28;20044;-84
2021/04/14 09:19:22;;;;;;;10.23;0.80;;;6.20;99.90;;;;;;5069051;28;20041;-84
2021/04/14 09:21:53;;;;;;;6.53;1.77;;;6.30;99.90;;;;;;5063933;28;20044;-84
2021/04/14 09:24:38;;;;;;;3.78;0.95;;;6.40;99.90;;;;;;5064449;28;20033;-84
2021/04/14 09:27:09;;;;;;;1.98;0.60;;;6.40;99.90;;;;;;5065242;28;20037;-84
2021/04/14 09:29:58;;;;;;;5.80;0.73;;;6.50;99.90;;;;;;5068101;28;20127;-84
2021/04/14 09:32:59;;;;;;;6.95;0.77;;;6.50;99.90;;;;;;5050937;28;20111;-85
2021/04/14 09:35:28;;;;;;;0.70;0.25;;;6.50;99.90;;;;;;5014883;28;20135;-85
2021/04/14 09:40:49;;;;;;;3.78;0.80;;;6.50;99.90;;;;;;5069466;28;20541;-85
2021/04/14 09:43:17;;;;;;;6.82;0.82;;;6.60;99.90;;;;;;5068730;28;20500;-85
2021/04/14 09:46:13;;;;;;;4.40;0.45;;;6.60;99.90;;;;;;5051459;28;20443;-86
2021/04/14 09:48:48;;;;;;;5.35;0.80;;;6.60;99.90;;;;;;5062684;28;20116;-85
2021/04/14 09:51:29;;;;;;;13.25;2.08;;;6.60;99.90;;;;;;5038820;28;20488;-85
2021/04/14 09:53:58;;;;;;;3.63;0.50;;;6.70;99.90;;;;;;5057011;28;20093;-85
2021/04/14 09:56:30;;;;;;;7.47;0.80;;;6.80;99.90;;;;;;5034837;28;20071;-85
2021/04/14 09:59:15;;;;;;;3.78;0.50;;;6.90;99.90;;;;;;5051008;28;20510;-86
2021/04/14 10:01:42;;;;;;;11.75;1.05;;;6.90;99.90;;;;;;5024043;28;20375;-85
2021/04/14 10:04:19;;;;;;;3.55;0.65;;;6.90;99.90;;;;;;5050438;28;20037;-85
2021/04/14 10:06:52;;;;;;;5.22;1.15;;;7.00;99.90;;;;;;5038530;28;20053;-86
2021/04/14 10:09:25;;;;;;;13.80;1.23;;;7.00;99.90;;;;;;5067780;28;20028;-86
2021/04/14 10:11:52;;;;;;;5.78;0.68;;;7.00;99.90;;;;;;5062628;28;20049;-86
2021/04/14 10:14:19;;;;;;;2.60;0.70;;;7.00;99.90;;;;;;5014753;28;20459;-85
2021/04/14 10:16:46;;;;;;;5.45;0.73;;;6.90;99.90;;;;;;5050774;28;20396;-86
2021/04/14 10:19:26;;;;;;;3.92;0.40;;;6.80;99.90;;;;;;5029522;28;20048;-86
2021/04/14 10:21:52;;;;;;;4.75;0.65;;;6.90;99.90;;;;;;5068548;28;20041;-86
2021/04/14 10:24:18;;;;;;;8.80;1.17;;;6.90;99.90;;;;;;5035862;28;20114;-86
2021/04/14 10:26:51;;;;;;;5.65;0.50;;;7.00;99.90;;;;;;5051047;28;20123;-86
2021/04/14 10:29:24;;;;;;;3.85;0.47;;;7.00;99.90;;;;;;5049818;28;20480;-85
2021/04/14 10:31:50;;;;;;;6.20;0.43;;;6.90;99.90;;;;;;5050792;28;20473;-83
2021/04/14 10:34:32;;;;;;;3.97;0.75;;;6.90;99.90;;;;;;5016404;28;20043;-82
2021/04/14 10:36:59;;;;;;;8.55;1.63;;;6.90;99.90;;;;;;5065897;28;20032;-82
2021/04/14 10:39:30;;;;;;;2.85;0.57;;;7.00;99.90;;;;;;5049544;28;20193;-84
2021/04/14 10:41:57;;;;;;;4.57;0.75;;;7.00;99.90;;;;;;5049970;28;20049;-84
2021/04/14 10:44:31;;;;;;;7.55;0.98;;;7.00;99.90;;;;;;5067582;28;20040;-84
2021/04/14 10:47:28;;;;;;;6.68;2.30;;;7.10;99.90;;;;;;5068044;28;20408;-86
2021/04/14 10:50:11;;;;;;;7.60;2.55;;;7.20;99.90;;;;;;5043292;28;20060;-86
2021/04/14 10:52:37;;;;;;;4.95;0.82;;;7.20;99.90;;;;;;5067074;28;20056;-87
2021/04/14 10:55:10;;;;;;;6.82;1.00;;;7.20;99.90;;;;;;5063504;28;20029;-88
2021/04/14 10:57:39;;;;;;;9.55;1.33;;;7.20;99.90;;;;;;5049864;28;20040;-87
2021/04/14 11:00:15;;;;;;;3.25;0.50;;;7.20;99.90;;;;;;5068179;28;20123;-88
2021/04/14 11:02:44;;;;;;;6.47;0.90;;;7.20;99.90;;;;;;5062860;28;20472;-87
2021/04/14 11:05:14;;;;;;;5.80;0.80;;;7.20;99.90;;;;;;5067754;28;20044;-87
2021/04/14 11:07:42;;;;;;;11.83;0.97;;;7.20;99.90;;;;;;5038579;28;20033;-87
2021/04/14 11:10:13;;;;;;;2.50;0.65;;;7.20;99.90;;;;;;5025877;28;20159;-86
2021/04/14 11:12:45;;;;;;;;;;;7.40;99.90;;;;;;5063592;28;20036;-87
2021/04/14 11:15:18;;;;;;;8.25;1.05;;;7.30;99.90;;;;;;5048865;28;20021;-87
2021/04/14 11:17:52;;;;;;;4.53;1.13;;;7.30;99.90;;;;;;5050319;28;20032;-87
2021/04/14 11:20:22;;;;;;;7.68;0.57;;;7.30;99.90;;;;;;5065434;28;20048;-86
2021/04/14 11:22:49;;;;;;;4.05;0.98;;;7.40;99.90;;;;;;5049824;28;20079;-86
2021/04/14 11:25:33;;;;;;;9.18;0.77;;;7.40;99.90;;;;;;5048528;28;20048;-87
2021/04/14 11:28:10;;;;;;;7.82;0.75;;;7.40;99.90;;;;;;5044994;28;20040;-86
2021/04/14 11:30:57;;;;;;;12.77;1.00;;;7.40;99.90;;;;;;5067343;28;20465;-86
2021/04/14 11:33:42;;;;;;;8.52;0.98;;;7.50;99.90;;;;;;5067185;28;20040;-87
2021/04/14 11:36:29;;;;;;;5.95;1.00;;;7.50;99.90;;;;;;5041482;28;20036;-87
2021/04/14 11:38:58;;;;;;;3.35;0.80;;;7.50;99.90;;;;;;5070805;28;20036;-86
2021/04/14 11:41:34;;;;;;;3.95;0.52;;;7.40;99.90;;;;;;5048679;28;20044;-87
2021/04/14 11:44:02;;;;;;;6.18;0.80;;;7.40;99.90;;;;;;5071596;28;20040;-87
2021/04/14 11:46:30;;;;;;;9.52;1.00;;;7.40;99.90;;;;;;5053261;28;20445;-86
2021/04/14 11:49:01;;;;;;;4.80;0.63;;;7.50;99.90;;;;;;5047587;28;20048;-87
2021/04/14 11:51:30;;;;;;;4.75;0.70;;;7.40;99.90;;;;;;5065072;28;20044;-86
2021/04/14 11:54:15;;;;;;;7.97;0.60;;;7.50;99.90;;;;;;5071691;28;20055;-86
2021/04/14 11:56:44;;;;;;;5.80;0.68;;;7.50;99.90;;;;;;5067975;28;20045;-86
2021/04/14 11:59:27;;;;;;;9.50;0.90;;;7.60;99.90;;;;;;5051599;28;20037;-87
2021/04/14 12:02:15;;;;;;;6.57;1.02;;;7.50;99.90;;;;;;5030854;28;20425;-86
2021/04/14 12:04:44;;;;;;;8.02;0.77;;;7.60;99.90;;;;;;5050161;28;20056;-86
2021/04/14 12:07:09;;;;;;;6.13;0.73;;;7.50;99.90;;;;;;5050545;28;20110;-86
2021/04/14 12:09:38;;;;;;;5.13;0.50;;;7.50;99.90;;;;;;5049347;28;20112;-86
2021/04/14 12:12:11;;;;;;;8.40;1.58;;;7.50;99.90;;;;;;5050464;28;20543;-86
2021/04/14 12:14:37;;;;;;;6.55;0.50;;;7.60;99.90;;;;;;5050764;28;20044;-86
2021/04/14 12:17:02;;;;;;;4.60;0.50;;;7.60;99.90;;;;;;5026627;28;20051;-87
2021/04/14 12:19:28;;;;;;;1.15;0.57;;;7.60;99.90;;;;;;5048939;28;20098;-86
2021/04/14 12:21:55;;;;;;;4.57;0.70;;;7.70;99.90;;;;;;5051315;28;20044;-86
2021/04/14 12:24:21;;;;;;;5.57;0.50;;;7.80;99.90;;;;;;5032452;28;20508;-86
2021/04/14 12:26:48;;;;;;;5.97;0.52;;;7.90;99.90;;;;;;5032446;28;20409;-87
2021/04/14 12:29:14;;;;;;;6.35;1.27;;;7.90;99.90;;;;;;5033164;28;20449;-87
2021/04/14 12:31:41;;;;;;;5.63;0.85;;;7.90;99.90;;;;;;5050287;28;20052;-86
2021/04/14 12:34:08;;;;;;;11.80;1.08;;;7.80;99.90;;;;;;5049613;28;20071;-86
2021/04/14 12:36:34;;;;;;;3.42;0.90;;;8.00;99.90;;;;;;5027698;28;20839;-86
2021/04/14 12:39:01;;;;;;;6.53;0.68;;;8.00;99.90;;;;;;5049858;28;20037;-86
2021/04/14 12:41:27;;;;;;;3.30;0.70;;;8.10;99.90;;;;;;5031815;28;20412;-87
2021/04/14 12:43:53;;;;;;;4.32;0.52;;;8.10;99.90;;;;;;5049368;28;20041;-86
2021/04/14 12:46:20;;;;;;;3.13;0.50;;;8.20;99.90;;;;;;5034187;28;20116;-87
2021/04/14 12:48:48;;;;;;;3.00;0.55;;;8.10;99.90;;;;;;5050371;28;20048;-86
2021/04/14 12:51:29;;;;;;;3.75;0.50;;;8.10;99.90;;;;;;5054543;28;20047;-86
2021/04/14 12:54:13;;;;;;;6.07;0.65;;;8.10;99.90;;;;;;5032967;28;20543;-87
2021/04/14 12:56:42;;;;;;;6.53;0.45;;;8.10;99.90;;;;;;5048392;28;20121;-86
2021/04/14 12:59:18;;;;;;;2.72;0.50;;;8.10;99.90;;;;;;5069845;28;20071;-86
2021/04/14 13:01:46;;;;;;;7.97;1.30;;;8.20;99.90;;;;;;5069836;28;20044;-87
2021/04/14 13:04:23;;;;;;;2.55;0.60;;;8.10;99.90;;;;;;5045955;28;20044;-86
2021/04/14 13:07:04;;;;;;;0.98;0.43;;;8.30;99.90;;;;;;5048145;28;20094;-86
2021/04/14 13:09:35;;;;;;;5.18;0.85;;;8.20;99.90;;;;;;5051532;28;20848;-86
2021/04/14 13:12:30;;;;;;;8.43;0.50;;;8.20;99.90;;;;;;5052563;28;20115;-86
2021/04/14 13:14:57;;;;;;;6.35;0.57;;;8.20;99.90;;;;;;5070535;28;20500;-87
2021/04/14 13:17:31;;;;;;;8.27;0.70;;;8.20;99.90;;;;;;5048225;28;20048;-87
2021/04/14 13:20:00;;;;;;;3.10;0.50;;;8.30;99.90;;;;;;5052245;28;20044;-86
2021/04/14 13:22:45;;;;;;;6.32;0.70;;;8.40;99.90;;;;;;5051191;28;20082;-86
2021/04/14 13:30:36;;;;;;;4.78;0.80;;;8.30;99.90;;;;;;5917642;23;20054;-89